sensor_id;sensor_type;location;lat;lon;timestamp;pressure;altitude;pressure_sealevel;temperature;humidity
24154;BME280;12312;53.362;-1.518;2022-11-14T00:01:10;99021.25;;;10.19;100.00
24154;BME280;12312;53.362;-1.518;2022-11-14T00:03:36;99005.50;;;10.16;100.00
24154;BME280;12312;53.362;-1.518;2022-11-14T00:06:04;99014.66;;;10.25;100.00
24154;BME280;12312;53.362;-1.518;2022-11-14T00:08:31;99016.00;;;10.07;100.00
24154;BME280;12312;53.362;-1.518;2022-11-14T00:10:57;99006.66;;;10.25;100.00
24154;BME280;12312;53.362;-1.518;2022-11-14T00:13:23;99004.47;;;10.19;100.00
24154;BME280;12312;53.362;-1.518;2022-11-14T00:15:50;99007.56;;;10.13;100.00
24154;BME280;12312;53.362;-1.518;2022-11-14T00:18:18;99011.81;;;10.15;100.00
24154;BME280;12312;53.362;-1.518;2022-11-14T00:20:49;99007.59;;;10.24;100.00
24154;BME280;12312;53.362;-1.518;2022-11-14T00:23:16;99002.81;;;10.29;100.00
24154;BME280;12312;53.362;-1.518;2022-11-14T00:25:45;99000.88;;;10.31;100.00
24154;BME280;12312;53.362;-1.518;2022-11-14T00:28:11;98996.25;;;10.22;100.00
24154;BME280;12312;53.362;-1.518;2022-11-14T00:30:37;98991.97;;;10.08;100.00
24154;BME280;12312;53.362;-1.518;2022-11-14T00:33:03;98977.59;;;10.11;100.00
24154;BME280;12312;53.362;-1.518;2022-11-14T00:35:29;98979.59;;;10.07;100.00
24154;BME280;12312;53.362;-1.518;2022-11-14T00:37:55;98967.47;;;10.16;100.00
24154;BME280;12312;53.362;-1.518;2022-11-14T00:40:21;98962.84;;;10.07;100.00
24154;BME280;12312;53.362;-1.518;2022-11-14T00:42:46;98971.56;;;9.96;100.00
24154;BME280;12312;53.362;-1.518;2022-11-14T00:45:12;98961.84;;;10.08;100.00
24154;BME280;12312;53.362;-1.518;2022-11-14T00:47:38;98961.44;;;10.25;100.00
24154;BME280;12312;53.362;-1.518;2022-11-14T00:50:05;98961.91;;;10.19;100.00
24154;BME280;12312;53.362;-1.518;2022-11-14T00:52:30;98961.94;;;10.06;100.00
24154;BME280;12312;53.362;-1.518;2022-11-14T00:54:57;98950.03;;;10.12;100.00
24154;BME280;12312;53.362;-1.518;2022-11-14T00:57:23;98950.91;;;10.00;100.00
24154;BME280;12312;53.362;-1.518;2022-11-14T00:59:48;98943.72;;;9.89;100.00
24154;BME280;12312;53.362;-1.518;2022-11-14T01:02:15;98952.03;;;9.85;100.00
24154;BME280;12312;53.362;-1.518;2022-11-14T01:04:40;98939.94;;;9.81;100.00
24154;BME280;12312;53.362;-1.518;2022-11-14T01:07:06;98937.06;;;9.84;100.00
24154;BME280;12312;53.362;-1.518;2022-11-14T01:09:32;98938.06;;;9.94;100.00
24154;BME280;12312;53.362;-1.518;2022-11-14T01:11:58;98928.41;;;9.93;100.00
24154;BME280;12312;53.362;-1.518;2022-11-14T01:14:23;98926.59;;;10.17;100.00
24154;BME280;12312;53.362;-1.518;2022-11-14T01:16:49;98920.78;;;9.88;100.00
24154;BME280;12312;53.362;-1.518;2022-11-14T01:19:14;98925.47;;;9.85;100.00
24154;BME280;12312;53.362;-1.518;2022-11-14T01:21:40;98920.91;;;9.87;100.00
24154;BME280;12312;53.362;-1.518;2022-11-14T01:24:06;98915.88;;;9.95;100.00
24154;BME280;12312;53.362;-1.518;2022-11-14T01:26:32;98910.91;;;10.01;100.00
24154;BME280;12312;53.362;-1.518;2022-11-14T01:28:59;98902.06;;;9.90;100.00
24154;BME280;12312;53.362;-1.518;2022-11-14T01:31:25;98902.06;;;9.90;100.00
24154;BME280;12312;53.362;-1.518;2022-11-14T01:33:56;98905.00;;;9.98;100.00
24154;BME280;12312;53.362;-1.518;2022-11-14T01:36:25;98905.94;;;9.97;100.00
24154;BME280;12312;53.362;-1.518;2022-11-14T01:38:52;98912.00;;;9.99;100.00
24154;BME280;12312;53.362;-1.518;2022-11-14T01:41:19;98905.78;;;10.11;100.00
24154;BME280;12312;53.362;-1.518;2022-11-14T01:43:46;98905.22;;;9.95;100.00
24154;BME280;12312;53.362;-1.518;2022-11-14T01:48:59;98900.59;;;9.86;100.00
24154;BME280;12312;53.362;-1.518;2022-11-14T01:51:42;98898.09;;;9.95;100.00
24154;BME280;12312;53.362;-1.518;2022-11-14T01:54:20;98898.66;;;9.88;100.00
24154;BME280;12312;53.362;-1.518;2022-11-14T01:56:51;98901.78;;;9.82;100.00
24154;BME280;12312;53.362;-1.518;2022-11-14T01:59:21;98909.06;;;9.91;100.00
24154;BME280;12312;53.362;-1.518;2022-11-14T02:01:50;98905.00;;;9.98;100.00
24154;BME280;12312;53.362;-1.518;2022-11-14T02:04:24;98901.44;;;9.86;100.00
24154;BME280;12312;53.362;-1.518;2022-11-14T02:06:57;98903.06;;;10.00;100.00
24154;BME280;12312;53.362;-1.518;2022-11-14T02:09:27;98899.00;;;9.83;100.00
24154;BME280;12312;53.362;-1.518;2022-11-14T02:11:56;98901.06;;;9.80;100.00
24154;BME280;12312;53.362;-1.518;2022-11-14T02:14:23;98897.09;;;9.85;100.00
24154;BME280;12312;53.362;-1.518;2022-11-14T02:16:49;98891.38;;;9.79;100.00
24154;BME280;12312;53.362;-1.518;2022-11-14T02:19:18;98890.25;;;9.70;100.00
24154;BME280;12312;53.362;-1.518;2022-11-14T02:21:43;98886.00;;;9.68;100.00
24154;BME280;12312;53.362;-1.518;2022-11-14T02:24:10;98880.47;;;9.71;100.00
24154;BME280;12312;53.362;-1.518;2022-11-14T02:26:36;98879.28;;;9.75;100.00
24154;BME280;12312;53.362;-1.518;2022-11-14T02:29:04;98876.34;;;9.67;100.00
24154;BME280;12312;53.362;-1.518;2022-11-14T02:31:30;98868.31;;;9.56;100.00
24154;BME280;12312;53.362;-1.518;2022-11-14T02:33:58;98867.16;;;9.60;100.00
24154;BME280;12312;53.362;-1.518;2022-11-14T02:36:24;98869.59;;;9.74;100.00
24154;BME280;12312;53.362;-1.518;2022-11-14T02:38:49;98858.59;;;9.44;100.00
24154;BME280;12312;53.362;-1.518;2022-11-14T02:41:15;98870.41;;;9.40;100.00
24154;BME280;12312;53.362;-1.518;2022-11-14T02:43:41;98858.94;;;9.39;100.00
24154;BME280;12312;53.362;-1.518;2022-11-14T02:46:08;98853.03;;;9.36;100.00
24154;BME280;12312;53.362;-1.518;2022-11-14T02:48:34;98859.28;;;9.35;100.00
24154;BME280;12312;53.362;-1.518;2022-11-14T02:51:00;98849.00;;;9.30;100.00
24154;BME280;12312;53.362;-1.518;2022-11-14T02:53:26;98849.09;;;9.29;100.00
24154;BME280;12312;53.362;-1.518;2022-11-14T02:55:52;98850.53;;;9.22;100.00
24154;BME280;12312;53.362;-1.518;2022-11-14T02:58:17;98841.13;;;9.29;100.00
24154;BME280;12312;53.362;-1.518;2022-11-14T03:00:44;98839.63;;;9.37;100.00
24154;BME280;12312;53.362;-1.518;2022-11-14T03:03:10;98831.88;;;9.34;100.00
24154;BME280;12312;53.362;-1.518;2022-11-14T03:05:37;98829.34;;;9.33;100.00
24154;BME280;12312;53.362;-1.518;2022-11-14T03:08:03;98827.75;;;9.30;100.00
24154;BME280;12312;53.362;-1.518;2022-11-14T03:10:29;98834.38;;;9.25;100.00
24154;BME280;12312;53.362;-1.518;2022-11-14T03:12:55;98833.50;;;9.24;100.00
24154;BME280;12312;53.362;-1.518;2022-11-14T03:15:22;98832.06;;;9.20;100.00
24154;BME280;12312;53.362;-1.518;2022-11-14T03:17:49;98827.56;;;9.21;100.00
24154;BME280;12312;53.362;-1.518;2022-11-14T03:20:15;98826.28;;;9.26;100.00
24154;BME280;12312;53.362;-1.518;2022-11-14T03:22:42;98823.34;;;9.18;100.00
24154;BME280;12312;53.362;-1.518;2022-11-14T03:25:08;98817.06;;;9.43;100.00
24154;BME280;12312;53.362;-1.518;2022-11-14T03:27:34;98817.47;;;9.49;100.00
24154;BME280;12312;53.362;-1.518;2022-11-14T03:29:59;98807.22;;;9.56;100.00
24154;BME280;12312;53.362;-1.518;2022-11-14T03:32:25;98806.16;;;9.58;100.00
24154;BME280;12312;53.362;-1.518;2022-11-14T03:34:51;98810.31;;;9.39;100.00
24154;BME280;12312;53.362;-1.518;2022-11-14T03:37:17;98807.88;;;9.36;100.00
24154;BME280;12312;53.362;-1.518;2022-11-14T03:39:43;98799.28;;;9.32;100.00
24154;BME280;12312;53.362;-1.518;2022-11-14T03:42:10;98800.13;;;9.33;100.00
24154;BME280;12312;53.362;-1.518;2022-11-14T03:44:36;98791.78;;;9.26;100.00
24154;BME280;12312;53.362;-1.518;2022-11-14T03:47:02;98787.97;;;9.18;100.00
24154;BME280;12312;53.362;-1.518;2022-11-14T03:49:32;98796.50;;;9.34;100.00
24154;BME280;12312;53.362;-1.518;2022-11-14T03:51:58;98799.34;;;9.20;100.00
24154;BME280;12312;53.362;-1.518;2022-11-14T03:54:33;98805.19;;;9.12;100.00
24154;BME280;12312;53.362;-1.518;2022-11-14T03:56:58;98813.28;;;9.11;100.00
24154;BME280;12312;53.362;-1.518;2022-11-14T03:59:26;98799.38;;;9.07;100.00
24154;BME280;12312;53.362;-1.518;2022-11-14T04:01:53;98783.78;;;9.02;100.00
24154;BME280;12312;53.362;-1.518;2022-11-14T04:04:20;98781.44;;;9.11;100.00
24154;BME280;12312;53.362;-1.518;2022-11-14T04:06:45;98767.59;;;9.42;100.00
24154;BME280;12312;53.362;-1.518;2022-11-14T04:09:11;98756.97;;;9.42;100.00
24154;BME280;12312;53.362;-1.518;2022-11-14T04:12:02;98749.00;;;9.53;100.00
24154;BME280;12312;53.362;-1.518;2022-11-14T04:14:27;98745.19;;;9.57;100.00
24154;BME280;12312;53.362;-1.518;2022-11-14T04:16:53;98744.75;;;9.39;100.00
24154;BME280;12312;53.362;-1.518;2022-11-14T04:19:18;98748.66;;;9.23;100.00
24154;BME280;12312;53.362;-1.518;2022-11-14T04:21:44;98766.47;;;9.10;100.00
24154;BME280;12312;53.362;-1.518;2022-11-14T04:24:10;98766.28;;;9.00;100.00
24154;BME280;12312;53.362;-1.518;2022-11-14T04:26:36;98766.75;;;8.94;100.00
24154;BME280;12312;53.362;-1.518;2022-11-14T04:29:01;98761.03;;;8.87;100.00
24154;BME280;12312;53.362;-1.518;2022-11-14T04:31:27;98762.28;;;8.94;100.00
24154;BME280;12312;53.362;-1.518;2022-11-14T04:33:53;98755.44;;;9.03;100.00
24154;BME280;12312;53.362;-1.518;2022-11-14T04:36:19;98755.84;;;9.10;100.00
24154;BME280;12312;53.362;-1.518;2022-11-14T04:38:44;98757.13;;;9.04;100.00
24154;BME280;12312;53.362;-1.518;2022-11-14T04:41:11;98746.59;;;8.91;100.00
24154;BME280;12312;53.362;-1.518;2022-11-14T04:43:38;98747.50;;;9.27;100.00
24154;BME280;12312;53.362;-1.518;2022-11-14T04:46:03;98750.09;;;9.16;100.00
24154;BME280;12312;53.362;-1.518;2022-11-14T04:48:29;98744.19;;;8.99;100.00
24154;BME280;12312;53.362;-1.518;2022-11-14T04:50:55;98753.69;;;8.91;100.00
24154;BME280;12312;53.362;-1.518;2022-11-14T04:53:21;98750.84;;;8.81;100.00
24154;BME280;12312;53.362;-1.518;2022-11-14T04:55:47;98748.06;;;8.95;100.00
24154;BME280;12312;53.362;-1.518;2022-11-14T04:58:13;98741.06;;;8.94;100.00
24154;BME280;12312;53.362;-1.518;2022-11-14T05:00:39;98738.97;;;9.11;100.00
24154;BME280;12312;53.362;-1.518;2022-11-14T05:03:05;98737.75;;;9.15;100.00
24154;BME280;12312;53.362;-1.518;2022-11-14T05:05:31;98738.56;;;9.04;100.00
24154;BME280;12312;53.362;-1.518;2022-11-14T05:07:57;98727.78;;;9.18;100.00
24154;BME280;12312;53.362;-1.518;2022-11-14T05:10:23;98733.59;;;8.99;100.00
24154;BME280;12312;53.362;-1.518;2022-11-14T05:12:53;98738.34;;;8.83;100.00
24154;BME280;12312;53.362;-1.518;2022-11-14T05:15:25;98747.09;;;8.96;100.00
24154;BME280;12312;53.362;-1.518;2022-11-14T05:17:51;98747.09;;;8.73;100.00
24154;BME280;12312;53.362;-1.518;2022-11-14T05:20:19;98734.94;;;8.81;100.00
24154;BME280;12312;53.362;-1.518;2022-11-14T05:22:45;98744.91;;;9.14;100.00
24154;BME280;12312;53.362;-1.518;2022-11-14T05:25:11;98743.75;;;9.05;100.00
24154;BME280;12312;53.362;-1.518;2022-11-14T05:27:36;98738.31;;;9.07;100.00
24154;BME280;12312;53.362;-1.518;2022-11-14T05:30:03;98734.84;;;9.07;100.00
24154;BME280;12312;53.362;-1.518;2022-11-14T05:32:28;98761.09;;;8.98;100.00
24154;BME280;12312;53.362;-1.518;2022-11-14T05:34:54;98755.50;;;8.90;100.00
24154;BME280;12312;53.362;-1.518;2022-11-14T05:37:19;98765.09;;;8.80;100.00
24154;BME280;12312;53.362;-1.518;2022-11-14T05:39:45;98751.31;;;8.75;100.00
24154;BME280;12312;53.362;-1.518;2022-11-14T05:42:10;98746.75;;;9.01;100.00
24154;BME280;12312;53.362;-1.518;2022-11-14T05:44:37;98736.75;;;9.04;100.00
24154;BME280;12312;53.362;-1.518;2022-11-14T05:47:03;98732.59;;;8.89;100.00
24154;BME280;12312;53.362;-1.518;2022-11-14T05:49:29;98712.34;;;8.99;100.00
24154;BME280;12312;53.362;-1.518;2022-11-14T05:51:54;98713.31;;;8.98;100.00
24154;BME280;12312;53.362;-1.518;2022-11-14T05:54:20;98727.22;;;8.78;100.00
24154;BME280;12312;53.362;-1.518;2022-11-14T05:56:46;98715.66;;;8.79;100.00
24154;BME280;12312;53.362;-1.518;2022-11-14T05:59:12;98717.28;;;8.69;100.00
24154;BME280;12312;53.362;-1.518;2022-11-14T06:01:37;98707.47;;;8.82;100.00
24154;BME280;12312;53.362;-1.518;2022-11-14T06:04:05;98705.50;;;8.73;100.00
24154;BME280;12312;53.362;-1.518;2022-11-14T06:06:31;98705.31;;;8.64;100.00
24154;BME280;12312;53.362;-1.518;2022-11-14T06:08:56;98710.81;;;8.73;100.00
24154;BME280;12312;53.362;-1.518;2022-11-14T06:11:22;98711.59;;;8.86;100.00
24154;BME280;12312;53.362;-1.518;2022-11-14T06:13:48;98712.03;;;8.80;100.00
24154;BME280;12312;53.362;-1.518;2022-11-14T06:16:17;98708.84;;;8.75;100.00
24154;BME280;12312;53.362;-1.518;2022-11-14T06:18:44;98717.75;;;8.87;100.00
24154;BME280;12312;53.362;-1.518;2022-11-14T06:21:13;98716.28;;;8.70;100.00
24154;BME280;12312;53.362;-1.518;2022-11-14T06:23:43;98718.56;;;8.87;100.00
24154;BME280;12312;53.362;-1.518;2022-11-14T06:26:26;98712.59;;;8.73;100.00
24154;BME280;12312;53.362;-1.518;2022-11-14T06:28:57;98716.97;;;8.61;100.00
24154;BME280;12312;53.362;-1.518;2022-11-14T06:31:24;98713.53;;;8.72;100.00
24154;BME280;12312;53.362;-1.518;2022-11-14T06:33:50;98706.69;;;8.57;100.00
24154;BME280;12312;53.362;-1.518;2022-11-14T06:36:16;98718.00;;;8.71;100.00
24154;BME280;12312;53.362;-1.518;2022-11-14T06:38:43;98711.78;;;8.60;100.00
24154;BME280;12312;53.362;-1.518;2022-11-14T06:41:09;98711.59;;;9.21;100.00
24154;BME280;12312;53.362;-1.518;2022-11-14T06:43:38;98709.50;;;9.83;100.00
24154;BME280;12312;53.362;-1.518;2022-11-14T06:46:06;98711.22;;;9.49;100.00
24154;BME280;12312;53.362;-1.518;2022-11-14T06:48:32;98710.00;;;9.07;100.00
24154;BME280;12312;53.362;-1.518;2022-11-14T06:51:00;98718.09;;;8.82;100.00
24154;BME280;12312;53.362;-1.518;2022-11-14T06:53:27;98721.19;;;9.00;100.00
24154;BME280;12312;53.362;-1.518;2022-11-14T06:56:00;98720.75;;;8.82;100.00
24154;BME280;12312;53.362;-1.518;2022-11-14T06:58:29;98729.59;;;8.94;100.00
24154;BME280;12312;53.362;-1.518;2022-11-14T07:01:11;98725.06;;;8.83;100.00
24154;BME280;12312;53.362;-1.518;2022-11-14T07:03:37;98715.88;;;8.76;100.00
24154;BME280;12312;53.362;-1.518;2022-11-14T07:06:04;98715.44;;;8.82;100.00
24154;BME280;12312;53.362;-1.518;2022-11-14T07:08:31;98705.03;;;8.79;100.00
24154;BME280;12312;53.362;-1.518;2022-11-14T07:13:29;98703.34;;;9.02;100.00
24154;BME280;12312;53.362;-1.518;2022-11-14T07:15:55;98691.72;;;8.68;100.00
24154;BME280;12312;53.362;-1.518;2022-11-14T07:18:21;98696.38;;;8.65;100.00
24154;BME280;12312;53.362;-1.518;2022-11-14T07:20:46;98688.59;;;8.74;100.00
24154;BME280;12312;53.362;-1.518;2022-11-14T07:23:13;98693.81;;;8.76;100.00
24154;BME280;12312;53.362;-1.518;2022-11-14T07:25:39;98680.44;;;8.77;100.00
24154;BME280;12312;53.362;-1.518;2022-11-14T07:28:05;98687.19;;;9.05;100.00
24154;BME280;12312;53.362;-1.518;2022-11-14T07:30:32;98683.97;;;9.24;100.00
24154;BME280;12312;53.362;-1.518;2022-11-14T07:32:58;98685.44;;;9.28;100.00
24154;BME280;12312;53.362;-1.518;2022-11-14T07:35:24;98698.22;;;9.23;100.00
24154;BME280;12312;53.362;-1.518;2022-11-14T07:37:50;98670.91;;;9.10;100.00
24154;BME280;12312;53.362;-1.518;2022-11-14T07:40:17;98673.22;;;8.79;100.00
24154;BME280;12312;53.362;-1.518;2022-11-14T07:42:43;98669.31;;;8.96;100.00
24154;BME280;12312;53.362;-1.518;2022-11-14T07:45:09;98673.25;;;8.90;100.00
24154;BME280;12312;53.362;-1.518;2022-11-14T07:47:35;98651.66;;;8.95;100.00
24154;BME280;12312;53.362;-1.518;2022-11-14T07:50:01;98651.66;;;8.95;100.00
24154;BME280;12312;53.362;-1.518;2022-11-14T07:52:27;98646.06;;;9.11;100.00
24154;BME280;12312;53.362;-1.518;2022-11-14T07:54:55;98645.72;;;9.15;100.00
24154;BME280;12312;53.362;-1.518;2022-11-14T07:57:21;98640.00;;;8.97;100.00
24154;BME280;12312;53.362;-1.518;2022-11-14T07:59:47;98638.28;;;8.96;100.00
24154;BME280;12312;53.362;-1.518;2022-11-14T08:02:13;98644.03;;;8.90;100.00
24154;BME280;12312;53.362;-1.518;2022-11-14T08:04:42;98646.69;;;8.90;100.00
24154;BME280;12312;53.362;-1.518;2022-11-14T08:07:09;98640.22;;;8.94;100.00
24154;BME280;12312;53.362;-1.518;2022-11-14T08:09:35;98639.72;;;8.66;100.00
24154;BME280;12312;53.362;-1.518;2022-11-14T08:12:01;98630.81;;;8.67;100.00
24154;BME280;12312;53.362;-1.518;2022-11-14T08:14:27;98632.28;;;9.05;100.00
24154;BME280;12312;53.362;-1.518;2022-11-14T08:16:53;98631.22;;;8.73;100.00
24154;BME280;12312;53.362;-1.518;2022-11-14T08:19:18;98634.19;;;8.69;100.00
24154;BME280;12312;53.362;-1.518;2022-11-14T08:21:44;98626.56;;;8.64;100.00
24154;BME280;12312;53.362;-1.518;2022-11-14T08:24:10;98610.75;;;8.86;100.00
24154;BME280;12312;53.362;-1.518;2022-11-14T08:26:35;98613.31;;;8.64;100.00
24154;BME280;12312;53.362;-1.518;2022-11-14T08:29:01;98612.81;;;8.59;100.00
24154;BME280;12312;53.362;-1.518;2022-11-14T08:31:27;98640.63;;;8.54;100.00
24154;BME280;12312;53.362;-1.518;2022-11-14T08:33:53;98644.75;;;8.81;100.00
24154;BME280;12312;53.362;-1.518;2022-11-14T08:36:19;98639.53;;;9.03;100.00
24154;BME280;12312;53.362;-1.518;2022-11-14T08:38:45;98624.31;;;8.94;100.00
24154;BME280;12312;53.362;-1.518;2022-11-14T08:41:10;98619.41;;;9.12;100.00
24154;BME280;12312;53.362;-1.518;2022-11-14T08:43:36;98620.50;;;9.10;100.00
24154;BME280;12312;53.362;-1.518;2022-11-14T08:46:03;98624.63;;;9.25;100.00
24154;BME280;12312;53.362;-1.518;2022-11-14T08:48:30;98620.53;;;9.32;100.00
24154;BME280;12312;53.362;-1.518;2022-11-14T08:50:56;98619.03;;;9.17;100.00
24154;BME280;12312;53.362;-1.518;2022-11-14T08:53:22;98608.34;;;9.29;100.00
24154;BME280;12312;53.362;-1.518;2022-11-14T08:55:48;98600.94;;;9.11;100.00
24154;BME280;12312;53.362;-1.518;2022-11-14T08:58:14;98590.28;;;8.99;100.00
24154;BME280;12312;53.362;-1.518;2022-11-14T09:00:41;98588.84;;;8.95;100.00
24154;BME280;12312;53.362;-1.518;2022-11-14T09:03:08;98594.19;;;9.18;100.00
24154;BME280;12312;53.362;-1.518;2022-11-14T09:05:35;98591.31;;;9.32;100.00
24154;BME280;12312;53.362;-1.518;2022-11-14T09:08:01;98577.56;;;9.27;100.00
24154;BME280;12312;53.362;-1.518;2022-11-14T09:10:27;98581.19;;;9.37;100.00
24154;BME280;12312;53.362;-1.518;2022-11-14T09:12:57;98565.09;;;9.16;100.00
24154;BME280;12312;53.362;-1.518;2022-11-14T09:15:22;98561.75;;;9.25;100.00
24154;BME280;12312;53.362;-1.518;2022-11-14T09:17:52;98567.16;;;9.13;100.00
24154;BME280;12312;53.362;-1.518;2022-11-14T09:20:17;98572.25;;;9.27;100.00
24154;BME280;12312;53.362;-1.518;2022-11-14T09:22:44;98586.84;;;9.32;100.00
24154;BME280;12312;53.362;-1.518;2022-11-14T09:25:09;98590.25;;;9.56;100.00
24154;BME280;12312;53.362;-1.518;2022-11-14T09:27:35;98591.78;;;9.26;100.00
24154;BME280;12312;53.362;-1.518;2022-11-14T09:30:00;98581.66;;;9.20;100.00
24154;BME280;12312;53.362;-1.518;2022-11-14T09:32:27;98577.50;;;9.04;100.00
24154;BME280;12312;53.362;-1.518;2022-11-14T09:34:53;98577.78;;;9.24;100.00
24154;BME280;12312;53.362;-1.518;2022-11-14T09:37:19;98574.28;;;9.12;100.00
24154;BME280;12312;53.362;-1.518;2022-11-14T09:39:45;98580.44;;;9.13;100.00
24154;BME280;12312;53.362;-1.518;2022-11-14T09:42:22;98571.88;;;9.20;100.00
24154;BME280;12312;53.362;-1.518;2022-11-14T09:44:57;98570.28;;;9.07;100.00
24154;BME280;12312;53.362;-1.518;2022-11-14T09:47:28;98572.69;;;8.98;100.00
24154;BME280;12312;53.362;-1.518;2022-11-14T09:50:05;98571.69;;;8.99;100.00
24154;BME280;12312;53.362;-1.518;2022-11-14T09:52:38;98574.34;;;8.99;100.00
24154;BME280;12312;53.362;-1.518;2022-11-14T09:55:16;98566.91;;;9.04;100.00
24154;BME280;12312;53.362;-1.518;2022-11-14T09:57:43;98576.06;;;9.00;100.00
24154;BME280;12312;53.362;-1.518;2022-11-14T10:00:18;98582.91;;;8.92;100.00
24154;BME280;12312;53.362;-1.518;2022-11-14T10:08:14;98573.19;;;9.15;100.00
24154;BME280;12312;53.362;-1.518;2022-11-14T10:10:55;98616.59;;;9.02;100.00
24154;BME280;12312;53.362;-1.518;2022-11-14T10:13:48;98609.31;;;8.93;100.00
24154;BME280;12312;53.362;-1.518;2022-11-14T10:19:20;98600.25;;;8.85;100.00
24154;BME280;12312;53.362;-1.518;2022-11-14T10:22:04;98604.53;;;8.98;100.00
24154;BME280;12312;53.362;-1.518;2022-11-14T10:27:35;98603.06;;;8.94;100.00
24154;BME280;12312;53.362;-1.518;2022-11-14T10:30:11;98602.09;;;8.95;100.00
24154;BME280;12312;53.362;-1.518;2022-11-14T10:35:19;98605.66;;;9.18;100.00
24154;BME280;12312;53.362;-1.518;2022-11-14T10:38:03;98594.41;;;9.15;100.00
24154;BME280;12312;53.362;-1.518;2022-11-14T10:40:38;98595.84;;;9.07;100.00
24154;BME280;12312;53.362;-1.518;2022-11-14T10:43:25;98593.44;;;9.04;100.00
24154;BME280;12312;53.362;-1.518;2022-11-14T10:45:56;98602.59;;;9.00;100.00
24154;BME280;12312;53.362;-1.518;2022-11-14T10:48:33;98590.28;;;8.99;100.00
24154;BME280;12312;53.362;-1.518;2022-11-14T10:51:19;98589.22;;;9.02;100.00
24154;BME280;12312;53.362;-1.518;2022-11-14T10:53:54;98589.56;;;8.97;100.00
24154;BME280;12312;53.362;-1.518;2022-11-14T10:56:22;98579.00;;;9.31;100.00
24154;BME280;12312;53.362;-1.518;2022-11-14T10:58:47;98583.00;;;9.25;100.00
24154;BME280;12312;53.362;-1.518;2022-11-14T11:01:33;98577.44;;;9.39;100.00
24154;BME280;12312;53.362;-1.518;2022-11-14T11:06:50;98566.34;;;9.23;100.00
24154;BME280;12312;53.362;-1.518;2022-11-14T11:09:18;98558.00;;;9.28;100.00
24154;BME280;12312;53.362;-1.518;2022-11-14T11:12:04;98561.50;;;9.39;100.00
24154;BME280;12312;53.362;-1.518;2022-11-14T11:14:30;98555.34;;;9.28;100.00
24154;BME280;12312;53.362;-1.518;2022-11-14T11:17:26;98558.72;;;9.41;100.00
24154;BME280;12312;53.362;-1.518;2022-11-14T11:19:52;98549.44;;;9.35;100.00
24154;BME280;12312;53.362;-1.518;2022-11-14T11:24:49;98548.38;;;9.27;100.00
24154;BME280;12312;53.362;-1.518;2022-11-14T11:27:24;98555.72;;;9.23;100.00
24154;BME280;12312;53.362;-1.518;2022-11-14T11:30:18;98546.44;;;9.40;100.00
24154;BME280;12312;53.362;-1.518;2022-11-14T11:32:44;98538.94;;;9.23;100.00
24154;BME280;12312;53.362;-1.518;2022-11-14T11:35:14;98533.84;;;9.20;100.00
24154;BME280;12312;53.362;-1.518;2022-11-14T11:38:10;98529.03;;;9.25;100.00
24154;BME280;12312;53.362;-1.518;2022-11-14T11:40:36;98523.50;;;9.28;100.00
24154;BME280;12312;53.362;-1.518;2022-11-14T11:43:09;98533.84;;;9.08;100.00
24154;BME280;12312;53.362;-1.518;2022-11-14T11:45:37;98523.97;;;9.22;100.00
24154;BME280;12312;53.362;-1.518;2022-11-14T11:48:17;98526.63;;;9.22;100.00
24154;BME280;12312;53.362;-1.518;2022-11-14T11:50:43;98520.72;;;9.18;100.00
24154;BME280;12312;53.362;-1.518;2022-11-14T11:55:43;98519.38;;;9.24;100.00
24154;BME280;12312;53.362;-1.518;2022-11-14T11:58:30;98518.91;;;9.19;100.00
24154;BME280;12312;53.362;-1.518;2022-11-14T12:00:57;98521.31;;;9.22;100.00
24154;BME280;12312;53.362;-1.518;2022-11-14T12:03:24;98511.91;;;9.51;100.00
24154;BME280;12312;53.362;-1.518;2022-11-14T12:06:15;98517.44;;;9.70;100.00
24154;BME280;12312;53.362;-1.518;2022-11-14T12:11:35;98513.53;;;9.85;100.00
24154;BME280;12312;53.362;-1.518;2022-11-14T12:22:16;98487.41;;;9.36;100.00
24154;BME280;12312;53.362;-1.518;2022-11-14T12:30:30;98470.13;;;9.53;100.00
24154;BME280;12312;53.362;-1.518;2022-11-14T12:33:20;98462.31;;;9.40;100.00
24154;BME280;12312;53.362;-1.518;2022-11-14T12:36:08;98465.59;;;9.33;100.00
24154;BME280;12312;53.362;-1.518;2022-11-14T12:38:50;98459.78;;;9.39;100.00
24154;BME280;12312;53.362;-1.518;2022-11-14T12:41:24;98458.31;;;9.35;100.00
24154;BME280;12312;53.362;-1.518;2022-11-14T12:43:50;98452.19;;;9.34;100.00
24154;BME280;12312;53.362;-1.518;2022-11-14T12:46:16;98457.56;;;9.44;100.00
24154;BME280;12312;53.362;-1.518;2022-11-14T12:48:44;98461.66;;;9.59;100.00
24154;BME280;12312;53.362;-1.518;2022-11-14T12:53:49;98448.00;;;9.63;100.00
24154;BME280;12312;53.362;-1.518;2022-11-14T13:10:43;98446.41;;;9.83;100.00
24154;BME280;12312;53.362;-1.518;2022-11-14T13:15:53;98433.16;;;9.61;100.00
24154;BME280;12312;53.362;-1.518;2022-11-14T13:27:28;98425.41;;;9.80;100.00
24154;BME280;12312;53.362;-1.518;2022-11-14T13:29:55;98423.53;;;9.60;100.00
24154;BME280;12312;53.362;-1.518;2022-11-14T13:40:39;98416.50;;;9.59;100.00
24154;BME280;12312;53.362;-1.518;2022-11-14T13:43:23;98420.94;;;9.69;100.00
24154;BME280;12312;53.362;-1.518;2022-11-14T13:46:26;98419.25;;;9.79;100.00
24154;BME280;12312;53.362;-1.518;2022-11-14T13:52:14;98371.94;;;9.94;100.00
24154;BME280;12312;53.362;-1.518;2022-11-14T13:54:48;98371.03;;;9.84;100.00
24154;BME280;12312;53.362;-1.518;2022-11-14T14:00:07;98360.53;;;10.03;100.00
24154;BME280;12312;53.362;-1.518;2022-11-14T14:08:55;98349.84;;;9.93;100.00
24154;BME280;12312;53.362;-1.518;2022-11-14T14:16:50;98343.31;;;10.18;100.00
24154;BME280;12312;53.362;-1.518;2022-11-14T14:22:28;98333.66;;;9.96;100.00
24154;BME280;12312;53.362;-1.518;2022-11-14T14:25:14;98327.88;;;9.91;100.00
24154;BME280;12312;53.362;-1.518;2022-11-14T14:30:24;98320.63;;;10.14;100.00
24154;BME280;12312;53.362;-1.518;2022-11-14T14:35:33;98311.78;;;9.93;100.00
24154;BME280;12312;53.362;-1.518;2022-11-14T14:38:00;98311.16;;;10.21;100.00
24154;BME280;12312;53.362;-1.518;2022-11-14T14:40:30;98303.91;;;10.53;100.00
24154;BME280;12312;53.362;-1.518;2022-11-14T14:43:01;98299.19;;;10.96;100.00